sensor_id;sensor_type;location;lat;lon;timestamp;temperature;humidity
81212;DHT22;70686;52.494;13.420;2023-07-02T18:42:35;24.00;50.40
81212;DHT22;70686;52.494;13.420;2023-07-02T18:53:21;25.80;36.10
81212;DHT22;70686;52.494;13.420;2023-07-02T18:55:57;25.50;35.60
81212;DHT22;70686;52.494;13.420;2023-07-02T18:58:23;25.40;39.60
81212;DHT22;70686;52.494;13.420;2023-07-02T19:00:49;25.60;36.60
81212;DHT22;70686;52.494;13.420;2023-07-02T19:03:15;25.60;35.90
81212;DHT22;70686;52.494;13.420;2023-07-02T19:05:41;25.50;35.90
81212;DHT22;70686;52.494;13.420;2023-07-02T19:08:06;25.40;35.90
81212;DHT22;70686;52.494;13.420;2023-07-02T19:10:32;25.30;35.90
81212;DHT22;70686;52.494;13.420;2023-07-02T19:12:57;25.20;35.70
81212;DHT22;70686;52.494;13.420;2023-07-02T19:15:25;25.20;35.70
81212;DHT22;70686;52.494;13.420;2023-07-02T19:17:50;25.10;35.30
81212;DHT22;70686;52.494;13.420;2023-07-02T19:20:16;25.10;35.50
81212;DHT22;70686;52.494;13.420;2023-07-02T19:22:44;25.00;35.80
81212;DHT22;70686;52.494;13.420;2023-07-02T19:25:09;25.00;36.20
81212;DHT22;70686;52.494;13.420;2023-07-02T19:27:36;24.90;36.00
81212;DHT22;70686;52.494;13.420;2023-07-02T19:30:04;24.90;35.70
81212;DHT22;70686;52.494;13.420;2023-07-02T19:32:30;24.90;36.00
81212;DHT22;70686;52.494;13.420;2023-07-02T19:35:02;24.90;35.90
81212;DHT22;70686;52.494;13.420;2023-07-02T19:37:29;24.80;35.80
81212;DHT22;70686;52.494;13.420;2023-07-02T19:39:55;24.80;35.90
81212;DHT22;70686;52.494;13.420;2023-07-02T19:42:20;24.70;35.90
81212;DHT22;70686;52.494;13.420;2023-07-02T19:44:46;24.70;36.60
81212;DHT22;70686;52.494;13.420;2023-07-02T19:47:11;24.70;37.00
81212;DHT22;70686;52.494;13.420;2023-07-02T19:49:39;24.70;36.70
81212;DHT22;70686;52.494;13.420;2023-07-02T19:52:09;24.70;36.70
81212;DHT22;70686;52.494;13.420;2023-07-02T19:54:35;24.70;36.70
81212;DHT22;70686;52.494;13.420;2023-07-02T19:57:02;24.70;36.90
81212;DHT22;70686;52.494;13.420;2023-07-02T19:59:28;24.70;36.90
81212;DHT22;70686;52.494;13.420;2023-07-02T20:01:53;24.60;37.10
81212;DHT22;70686;52.494;13.420;2023-07-02T20:04:20;24.70;36.80
81212;DHT22;70686;52.494;13.420;2023-07-02T20:06:46;24.60;36.90
81212;DHT22;70686;52.494;13.420;2023-07-02T20:09:12;24.60;36.80
81212;DHT22;70686;52.494;13.420;2023-07-02T20:11:37;24.60;36.80
81212;DHT22;70686;52.494;13.420;2023-07-02T20:14:03;24.60;36.70
81212;DHT22;70686;52.494;13.420;2023-07-02T20:16:28;24.60;36.90
81212;DHT22;70686;52.494;13.420;2023-07-02T20:18:54;24.50;36.80
81212;DHT22;70686;52.494;13.420;2023-07-02T20:21:20;24.50;36.90
81212;DHT22;70686;52.494;13.420;2023-07-02T20:23:45;24.40;37.20
81212;DHT22;70686;52.494;13.420;2023-07-02T20:26:14;24.40;37.20
81212;DHT22;70686;52.494;13.420;2023-07-02T20:28:40;24.40;37.30
81212;DHT22;70686;52.494;13.420;2023-07-02T20:31:06;24.50;54.70
81212;DHT22;70686;52.494;13.420;2023-07-02T20:33:31;24.30;55.70
81212;DHT22;70686;52.494;13.420;2023-07-02T20:35:57;24.20;59.00
81212;DHT22;70686;52.494;13.420;2023-07-02T20:38:22;24.10;58.80
81212;DHT22;70686;52.494;13.420;2023-07-02T20:40:56;24.00;60.10
81212;DHT22;70686;52.494;13.420;2023-07-02T20:43:30;23.90;60.60
81212;DHT22;70686;52.494;13.420;2023-07-02T20:45:55;23.80;61.90
81212;DHT22;70686;52.494;13.420;2023-07-02T20:48:24;23.70;60.90
81212;DHT22;70686;52.494;13.420;2023-07-02T20:50:52;23.60;58.70
81212;DHT22;70686;52.494;13.420;2023-07-02T20:53:18;23.50;60.50
81212;DHT22;70686;52.494;13.420;2023-07-02T20:55:51;23.40;58.80
81212;DHT22;70686;52.494;13.420;2023-07-02T20:58:17;23.30;57.10
81212;DHT22;70686;52.494;13.420;2023-07-02T21:00:43;23.20;59.70
81212;DHT22;70686;52.494;13.420;2023-07-02T21:03:08;23.20;59.00
81212;DHT22;70686;52.494;13.420;2023-07-02T21:05:36;23.10;60.20
81212;DHT22;70686;52.494;13.420;2023-07-02T21:08:02;23.10;60.00
81212;DHT22;70686;52.494;13.420;2023-07-02T21:10:27;23.10;59.30
81212;DHT22;70686;52.494;13.420;2023-07-02T21:12:52;23.00;57.90
81212;DHT22;70686;52.494;13.420;2023-07-02T21:15:18;22.90;57.50
81212;DHT22;70686;52.494;13.420;2023-07-02T21:17:47;22.90;58.20
81212;DHT22;70686;52.494;13.420;2023-07-02T21:20:12;22.90;57.10
81212;DHT22;70686;52.494;13.420;2023-07-02T21:22:38;22.90;58.30
81212;DHT22;70686;52.494;13.420;2023-07-02T21:25:04;22.90;57.50
81212;DHT22;70686;52.494;13.420;2023-07-02T21:27:29;23.00;56.60
81212;DHT22;70686;52.494;13.420;2023-07-02T21:29:55;22.90;54.40
81212;DHT22;70686;52.494;13.420;2023-07-02T21:32:21;23.00;56.10
81212;DHT22;70686;52.494;13.420;2023-07-02T21:34:47;23.00;53.90
81212;DHT22;70686;52.494;13.420;2023-07-02T21:37:12;23.00;55.90
81212;DHT22;70686;52.494;13.420;2023-07-02T21:39:38;23.10;54.10
81212;DHT22;70686;52.494;13.420;2023-07-02T21:42:04;23.10;53.20
81212;DHT22;70686;52.494;13.420;2023-07-02T21:44:29;23.10;53.00
81212;DHT22;70686;52.494;13.420;2023-07-02T21:46:55;23.10;49.80
81212;DHT22;70686;52.494;13.420;2023-07-02T21:49:20;23.20;49.00
81212;DHT22;70686;52.494;13.420;2023-07-02T21:51:46;23.20;49.40
81212;DHT22;70686;52.494;13.420;2023-07-02T21:54:11;23.10;46.60
81212;DHT22;70686;52.494;13.420;2023-07-02T21:56:37;23.20;48.10
81212;DHT22;70686;52.494;13.420;2023-07-02T21:59:02;23.20;44.80
81212;DHT22;70686;52.494;13.420;2023-07-02T22:01:28;23.20;47.60
81212;DHT22;70686;52.494;13.420;2023-07-02T22:03:53;23.20;46.40
81212;DHT22;70686;52.494;13.420;2023-07-02T22:06:19;23.20;45.10
81212;DHT22;70686;52.494;13.420;2023-07-02T22:08:44;23.20;45.60
81212;DHT22;70686;52.494;13.420;2023-07-02T22:11:14;23.20;46.80
81212;DHT22;70686;52.494;13.420;2023-07-02T22:13:39;23.30;45.40
81212;DHT22;70686;52.494;13.420;2023-07-02T22:16:05;23.30;44.30
81212;DHT22;70686;52.494;13.420;2023-07-02T22:18:31;23.20;43.10
81212;DHT22;70686;52.494;13.420;2023-07-02T22:21:05;23.30;44.50
81212;DHT22;70686;52.494;13.420;2023-07-02T22:23:32;23.30;44.50
81212;DHT22;70686;52.494;13.420;2023-07-02T22:25:58;23.30;44.20
81212;DHT22;70686;52.494;13.420;2023-07-02T22:28:23;23.30;42.50
81212;DHT22;70686;52.494;13.420;2023-07-02T22:30:49;23.30;42.00
81212;DHT22;70686;52.494;13.420;2023-07-02T22:33:14;23.30;41.80
81212;DHT22;70686;52.494;13.420;2023-07-02T22:35:40;23.30;42.40
81212;DHT22;70686;52.494;13.420;2023-07-02T22:38:05;23.20;40.70
81212;DHT22;70686;52.494;13.420;2023-07-02T22:40:31;23.10;39.80
81212;DHT22;70686;52.494;13.420;2023-07-02T22:42:57;23.10;40.50
81212;DHT22;70686;52.494;13.420;2023-07-02T22:45:22;23.10;41.90
81212;DHT22;70686;52.494;13.420;2023-07-02T22:47:49;23.10;40.80
81212;DHT22;70686;52.494;13.420;2023-07-02T22:50:15;23.10;41.00
81212;DHT22;70686;52.494;13.420;2023-07-02T22:52:41;23.10;41.00
81212;DHT22;70686;52.494;13.420;2023-07-02T22:55:10;23.10;40.90
81212;DHT22;70686;52.494;13.420;2023-07-02T22:57:37;23.10;40.80
81212;DHT22;70686;52.494;13.420;2023-07-02T23:00:06;23.10;40.50
81212;DHT22;70686;52.494;13.420;2023-07-02T23:02:44;23.10;40.40
81212;DHT22;70686;52.494;13.420;2023-07-02T23:05:15;23.20;40.30
81212;DHT22;70686;52.494;13.420;2023-07-02T23:07:45;23.10;39.90
81212;DHT22;70686;52.494;13.420;2023-07-02T23:10:12;23.10;40.20
81212;DHT22;70686;52.494;13.420;2023-07-02T23:12:45;23.10;40.10
81212;DHT22;70686;52.494;13.420;2023-07-02T23:15:12;23.10;40.20
81212;DHT22;70686;52.494;13.420;2023-07-02T23:17:59;23.10;40.50
81212;DHT22;70686;52.494;13.420;2023-07-02T23:20:24;23.10;40.60
81212;DHT22;70686;52.494;13.420;2023-07-02T23:22:52;23.10;40.40
81212;DHT22;70686;52.494;13.420;2023-07-02T23:25:19;23.10;40.00
81212;DHT22;70686;52.494;13.420;2023-07-02T23:27:45;23.00;39.90
81212;DHT22;70686;52.494;13.420;2023-07-02T23:30:16;23.00;40.20
81212;DHT22;70686;52.494;13.420;2023-07-02T23:32:44;23.00;40.10
81212;DHT22;70686;52.494;13.420;2023-07-02T23:35:11;23.00;39.70
81212;DHT22;70686;52.494;13.420;2023-07-02T23:37:38;23.00;39.70
81212;DHT22;70686;52.494;13.420;2023-07-02T23:40:08;23.00;39.80
81212;DHT22;70686;52.494;13.420;2023-07-02T23:42:37;22.90;39.40
81212;DHT22;70686;52.494;13.420;2023-07-02T23:45:05;22.90;39.40
81212;DHT22;70686;52.494;13.420;2023-07-02T23:47:31;22.90;39.40
81212;DHT22;70686;52.494;13.420;2023-07-02T23:49:57;22.90;39.80
81212;DHT22;70686;52.494;13.420;2023-07-02T23:52:24;22.80;39.80
81212;DHT22;70686;52.494;13.420;2023-07-02T23:54:49;22.90;39.80
81212;DHT22;70686;52.494;13.420;2023-07-02T23:57:15;22.80;39.80
81212;DHT22;70686;52.494;13.420;2023-07-02T23:59:40;22.80;39.80
